createdAt,value
2023-01-12T00:00:08.812Z,3.95
2023-01-12T00:05:15.377Z,4.65
2023-01-12T00:10:17.525Z,3.33
2023-01-12T00:15:39.528Z,5.72
2023-01-12T00:20:48.284Z,4.47
2023-01-12T00:25:51.585Z,2.78
2023-01-12T00:30:53.817Z,7.47
2023-01-12T00:35:55.935Z,4.03
2023-01-12T00:41:05.314Z,3.60
2023-01-12T00:46:09.744Z,7.72
2023-01-12T00:51:11.914Z,7.60
2023-01-12T00:56:14.033Z,1.90
2023-01-12T01:01:16.152Z,4.07
2023-01-12T01:06:18.354Z,5.45
2023-01-12T01:11:20.632Z,6.00
2023-01-12T01:16:22.734Z,4.15
2023-01-12T01:21:25.436Z,5.93
2023-01-12T01:26:27.736Z,7.85
2023-01-12T01:31:30.052Z,5.00
2023-01-12T01:36:32.339Z,5.18
2023-01-12T01:41:34.612Z,3.75
2023-01-12T01:46:52.569Z,4.07
2023-01-12T01:52:00.199Z,5.15
2023-01-12T01:57:03.128Z,4.93
2023-01-12T02:02:05.565Z,7.25
2023-01-12T02:07:08.936Z,7.93
2023-01-12T02:12:29.477Z,6.70
2023-01-12T02:17:34.371Z,3.57
2023-01-12T02:22:49.115Z,6.47
2023-01-12T02:28:36.447Z,4.65
2023-01-12T02:33:50.692Z,6.13
2023-01-12T02:39:21.734Z,3.10
2023-01-12T02:45:02.477Z,5.65
2023-01-12T02:50:10.091Z,4.45
2023-01-12T02:55:15.334Z,3.47
2023-01-12T03:00:18.967Z,5.28
2023-01-12T03:05:22.065Z,4.05
2023-01-12T03:10:45.632Z,5.25
2023-01-12T03:15:52.434Z,5.10
2023-01-12T03:21:00.077Z,6.30
2023-01-12T03:26:04.929Z,2.88
2023-01-12T03:31:11.883Z,4.13
2023-01-12T03:36:20.673Z,5.47
2023-01-12T03:41:59.501Z,5.10
2023-01-12T03:47:07.470Z,7.15
2023-01-12T03:52:12.377Z,6.07
2023-01-12T03:57:15.503Z,5.47
2023-01-12T04:02:17.586Z,5.40
2023-01-12T04:07:19.683Z,4.75
2023-01-12T04:12:21.786Z,6.28
2023-01-12T04:17:25.408Z,3.45
2023-01-12T04:22:45.596Z,8.73
2023-01-12T04:27:50.411Z,4.35
2023-01-12T04:32:52.695Z,4.20
2023-01-12T04:37:55.090Z,6.65
2023-01-12T04:43:08.453Z,6.13
2023-01-12T04:48:12.596Z,8.43
2023-01-12T04:53:14.644Z,5.82
2023-01-12T04:58:16.747Z,6.78
2023-01-12T05:03:18.975Z,6.40
2023-01-12T05:08:39.347Z,5.88
2023-01-12T05:13:41.715Z,7.88
2023-01-12T05:18:45.337Z,7.55
2023-01-12T05:23:47.879Z,8.57
2023-01-12T05:28:51.127Z,5.85
2023-01-12T05:33:53.221Z,8.13
2023-01-12T05:38:55.275Z,7.90
2023-01-12T05:43:57.343Z,6.90
2023-01-12T05:48:59.557Z,7.72
2023-01-12T05:54:03.199Z,8.80
2023-01-12T05:59:05.360Z,7.78
2023-01-12T06:04:07.500Z,8.52
2023-01-12T06:09:09.642Z,7.18
2023-01-12T06:14:11.962Z,7.05
2023-01-12T06:19:14.123Z,8.23
2023-01-12T06:24:16.317Z,8.00
2023-01-12T06:29:18.368Z,7.55
2023-01-12T06:34:20.701Z,7.25
2023-01-12T06:39:22.752Z,8.18
2023-01-12T06:44:24.933Z,7.03
2023-01-12T06:49:26.968Z,8.45
2023-01-12T06:54:29.035Z,8.30
2023-01-12T06:59:31.080Z,7.82
2023-01-12T07:04:33.169Z,7.45
2023-01-12T07:09:35.486Z,14.73
2023-01-12T07:14:37.607Z,11.60
2023-01-12T07:19:41.584Z,6.72
2023-01-12T07:24:43.755Z,7.93
2023-01-12T07:29:46.766Z,8.90
2023-01-12T07:34:48.964Z,7.85
2023-01-12T07:39:51.098Z,8.00
2023-01-12T07:44:53.459Z,7.55
2023-01-12T07:49:55.709Z,6.95
2023-01-12T07:54:58.358Z,9.30
2023-01-12T08:00:00.427Z,13.20
2023-01-12T08:05:02.667Z,8.00
2023-01-12T08:10:06.087Z,6.82
2023-01-12T08:15:09.831Z,9.82
2023-01-12T08:20:23.233Z,10.18
2023-01-12T08:25:30.679Z,11.77
2023-01-12T08:30:32.835Z,9.57
2023-01-12T08:35:35.709Z,15.05
2023-01-12T08:40:56.286Z,7.75
2023-01-12T08:46:07.939Z,7.70
2023-01-12T09:01:15.893Z,11.90
2023-01-12T09:06:21.758Z,9.57
2023-01-12T09:11:24.746Z,9.02
2023-01-12T09:16:29.533Z,8.57
2023-01-12T09:21:32.409Z,9.57
2023-01-12T09:26:43.042Z,7.93
2023-01-12T09:31:46.136Z,9.07
2023-01-12T09:36:51.352Z,14.00
2023-01-12T09:42:11.920Z,15.60
2023-01-12T09:47:35.260Z,9.18
2023-01-12T09:52:53.337Z,9.23
2023-01-12T09:58:15.612Z,9.00
2023-01-12T10:03:38.600Z,11.23
2023-01-12T10:09:01.007Z,10.48
2023-01-12T10:19:35.406Z,11.05
2023-01-12T10:24:41.325Z,11.65
2023-01-12T10:29:43.417Z,8.50
2023-01-12T10:34:52.285Z,9.88
2023-01-12T10:39:54.879Z,9.50
2023-01-12T10:45:22.589Z,9.55
2023-01-12T10:50:32.777Z,9.65
2023-01-12T10:55:39.825Z,8.65
2023-01-12T11:00:48.171Z,8.95
2023-01-12T11:05:50.263Z,6.53
2023-01-12T11:10:52.399Z,7.95
2023-01-12T11:16:12.263Z,11.45
2023-01-12T11:21:20.424Z,12.60
2023-01-12T11:26:28.887Z,12.00
2023-01-12T11:31:42.395Z,11.15
2023-01-12T11:36:51.185Z,14.93
2023-01-12T11:42:27.521Z,13.63
2023-01-12T11:47:36.858Z,12.10
2023-01-12T11:52:39.617Z,12.13
2023-01-12T11:57:47.698Z,9.38
2023-01-12T12:03:20.936Z,13.88
2023-01-12T12:08:41.552Z,13.65
2023-01-12T12:14:01.570Z,15.50
2023-01-12T12:19:03.680Z,16.40
2023-01-12T12:24:37.715Z,14.45
2023-01-12T12:30:22.183Z,8.52
2023-01-12T12:35:43.823Z,9.90
2023-01-12T12:41:15.844Z,10.68
2023-01-12T12:46:33.007Z,11.98
2023-01-12T12:51:37.818Z,8.55
2023-01-12T12:56:40.023Z,10.75
2023-01-12T13:01:55.707Z,12.65
2023-01-12T13:07:05.708Z,7.07
2023-01-12T13:12:07.720Z,9.35
2023-01-12T13:17:19.155Z,12.25
2023-01-12T13:22:43.650Z,8.43
2023-01-12T13:27:56.444Z,17.98
2023-01-12T13:33:25.116Z,7.07
2023-01-12T13:38:54.036Z,12.02
2023-01-12T13:43:58.974Z,12.38
2023-01-12T13:49:02.005Z,13.38
2023-01-12T13:54:16.086Z,9.70
2023-01-12T13:59:19.176Z,11.75
2023-01-12T14:04:36.527Z,8.63
2023-01-12T14:09:47.373Z,8.43
2023-01-12T14:15:26.475Z,8.48
2023-01-12T14:20:31.400Z,9.95
2023-01-12T14:25:33.486Z,6.03
2023-01-12T14:30:36.597Z,10.18
2023-01-12T14:35:47.016Z,10.75
2023-01-12T14:40:55.257Z,9.23
2023-01-12T14:46:20.622Z,7.68
2023-01-12T14:52:05.865Z,8.15
2023-01-12T14:57:19.750Z,9.55
2023-01-12T15:02:35.405Z,14.40
2023-01-12T15:07:54.129Z,14.60
2023-01-12T15:12:58.300Z,13.98
2023-01-12T15:18:18.883Z,5.60
2023-01-12T15:23:53.875Z,7.97
2023-01-12T15:28:56.113Z,11.75
2023-01-12T15:33:58.779Z,9.52
2023-01-12T15:39:00.939Z,10.68
2023-01-12T15:44:03.000Z,8.20
2023-01-12T15:49:05.993Z,9.52
2023-01-12T15:54:11.870Z,15.00
2023-01-12T15:59:14.136Z,9.55
2023-01-12T16:04:43.221Z,8.65
2023-01-12T16:09:47.934Z,10.60
2023-01-12T16:14:50.398Z,12.10
2023-01-12T16:19:52.689Z,12.60
2023-01-12T16:24:56.515Z,10.95
2023-01-12T16:29:58.756Z,12.35
2023-01-12T16:35:01.015Z,11.88
2023-01-12T16:40:03.719Z,12.10
2023-01-12T16:45:06.427Z,9.07
2023-01-12T16:50:09.107Z,12.27
2023-01-12T16:55:11.175Z,12.13
2023-01-12T17:00:14.289Z,8.98
2023-01-12T17:05:16.741Z,7.85
2023-01-12T17:10:19.076Z,11.18
2023-01-12T17:15:21.220Z,10.52
2023-01-12T17:20:23.676Z,11.07
2023-01-12T17:25:26.050Z,9.63
2023-01-12T17:30:28.417Z,10.40
2023-01-12T17:35:30.659Z,9.30
2023-01-12T17:40:32.948Z,11.55
2023-01-12T17:45:42.402Z,12.85
2023-01-12T17:50:44.995Z,10.70
2023-01-12T17:55:48.699Z,15.60
2023-01-12T18:00:51.895Z,12.55
2023-01-12T18:06:04.350Z,15.70
2023-01-12T18:11:09.344Z,16.67
2023-01-12T18:16:13.444Z,14.48
2023-01-12T18:21:20.676Z,11.73
2023-01-12T18:26:28.754Z,11.65
2023-01-12T18:31:32.794Z,9.07
2023-01-12T18:36:38.151Z,10.38
2023-01-12T18:41:58.807Z,9.73
2023-01-12T18:47:20.456Z,12.50
2023-01-12T18:52:41.005Z,10.32
2023-01-12T18:57:43.022Z,7.73
2023-01-12T19:02:45.258Z,13.10
2023-01-12T19:08:04.006Z,12.55
2023-01-12T19:13:24.805Z,6.03
2023-01-12T19:18:27.400Z,4.27
2023-01-12T19:23:48.178Z,7.93
2023-01-12T19:28:50.392Z,10.67
2023-01-12T19:33:52.491Z,15.23
2023-01-12T19:38:54.752Z,10.65
2023-01-12T19:43:56.838Z,7.93
2023-01-12T19:48:58.982Z,9.77
2023-01-12T19:54:01.041Z,8.27
2023-01-12T19:59:03.128Z,8.52
2023-01-12T20:04:05.241Z,7.75
2023-01-12T20:09:07.343Z,5.15
2023-01-12T20:14:09.714Z,9.43
2023-01-12T20:19:11.829Z,9.45
2023-01-12T20:24:13.936Z,8.65
2023-01-12T20:29:16.162Z,7.90
2023-01-12T20:34:20.283Z,10.00
2023-01-12T20:39:24.172Z,9.57
2023-01-12T20:44:26.334Z,9.57
2023-01-12T20:49:28.569Z,7.65
2023-01-12T20:54:30.850Z,6.03
2023-01-12T20:59:32.991Z,9.57
2023-01-12T21:04:35.133Z,8.18
2023-01-12T21:09:37.173Z,6.75
2023-01-12T21:14:39.291Z,7.03
2023-01-12T21:19:41.340Z,9.63
2023-01-12T21:24:43.416Z,6.32
2023-01-12T21:29:46.071Z,5.43
2023-01-12T21:34:50.360Z,6.60
2023-01-12T21:39:52.505Z,10.35
2023-01-12T21:44:54.628Z,7.35
2023-01-12T21:49:57.129Z,8.85
2023-01-12T21:55:00.001Z,8.65
2023-01-12T22:00:02.168Z,9.65
2023-01-12T22:05:14.343Z,11.80
2023-01-12T22:10:20.542Z,9.73
2023-01-12T22:15:23.784Z,10.32
2023-01-12T22:20:27.852Z,8.80
2023-01-12T22:25:29.936Z,10.93
2023-01-12T22:30:32.077Z,7.15
2023-01-12T22:35:34.264Z,13.18
2023-01-12T22:40:36.473Z,12.27
2023-01-12T22:45:38.977Z,9.25
2023-01-12T22:50:41.172Z,10.82
2023-01-12T22:55:43.353Z,11.15
2023-01-12T23:00:45.803Z,9.20
2023-01-12T23:05:49.897Z,8.68
2023-01-12T23:10:52.830Z,9.30
2023-01-12T23:15:58.127Z,9.43
2023-01-12T23:21:11.185Z,10.70
2023-01-12T23:26:16.774Z,9.15
2023-01-12T23:31:24.405Z,8.15
2023-01-12T23:36:28.533Z,10.13
2023-01-12T23:41:33.398Z,11.00
2023-01-12T23:46:38.377Z,8.98
2023-01-12T23:51:40.540Z,6.85
2023-01-12T23:56:42.681Z,7.28
